Allentown, Pennsylvania
Current Conditions -  °F | °C
As of 10:35 AM on Friday 19 Dec 2014 (Local Time) from KXLL Reporting Station
Overcast Overcast  
Wind Chill: 28°   Ceiling: 3100
Heat Index: 36°   Visibility: 10mi
Dew Point: 23°   Wind: 12mph
Humidity: 60%   Direction: 320°NW
Pressure: 30.09"   Gusts: 17mph
Location:  40.6°N, 75.47°W
Report Text: KXLL 191535Z AUTO 32010G15KT 10SM OVC031 02/M05 A3009 RMK AO2
Loading
Personal Weather Stations






























Interactive Weather Map New forecast layout! Learn more

10-Day Weather Forecast

Advertisements
Track Severe Weather on mobile